Time;durP1;ratioP1;P1;durP2;ratioP2;P2;SDS_P1;SDS_P2;PMS_P1;PMS_P2;Temp;Humidity;BMP_temperature;BMP_pressure;BME280_temperature;BME280_humidity;BME280_pressure;Samples;Min_cycle;Max_cycle;Signal;HPM_P1;HPM_P2
2023/08/08 00:02:14;;;;;;;4.63;1.92;;;;;;;-145.33;100.00;60416.63;5011555;28;20467;-83
2023/08/08 00:04:40;;;;;;;6.18;2.17;;;;;;;-145.33;100.00;60416.63;5009927;28;20487;-83
2023/08/08 00:07:06;;;;;;;4.97;2.17;;;;;;;-145.33;100.00;60416.63;4993553;28;20526;-86
2023/08/08 00:09:32;;;;;;;4.93;2.15;;;;;;;-145.33;100.00;60416.63;5011744;28;20473;-84
2023/08/08 00:11:57;;;;;;;3.67;1.90;;;;;;;-145.33;100.00;60416.63;5009811;28;20025;-84
2023/08/08 00:14:24;;;;;;;5.95;2.30;;;;;;;-145.33;100.00;60416.63;5010977;28;20112;-83
2023/08/08 00:16:49;;;;;;;5.40;2.45;;;;;;;-145.33;100.00;60416.63;5009029;28;20062;-84
2023/08/08 00:19:15;;;;;;;4.70;1.75;;;;;;;-145.33;100.00;60416.63;4993081;28;20114;-83
2023/08/08 00:21:40;;;;;;;4.65;1.92;;;;;;;-145.33;100.00;60416.63;5008699;28;20026;-83
2023/08/08 00:24:06;;;;;;;4.18;1.73;;;;;;;-145.33;100.00;60416.63;5006825;28;20073;-83
2023/08/08 00:26:33;;;;;;;3.97;1.77;;;;;;;-145.33;100.00;60416.63;5009323;28;20029;-81
2023/08/08 00:28:59;;;;;;;3.92;1.92;;;;;;;-145.33;100.00;60416.63;5009358;28;20036;-82
2023/08/08 00:31:24;;;;;;;4.40;1.92;;;;;;;-145.33;100.00;60416.63;5010324;28;20038;-83
2023/08/08 00:33:50;;;;;;;4.13;1.95;;;;;;;-145.33;100.00;60416.63;5009514;28;20030;-83
2023/08/08 00:36:15;;;;;;;5.85;2.00;;;;;;;-145.33;100.00;60416.63;5008045;28;20036;-84
2023/08/08 00:38:40;;;;;;;6.03;1.92;;;;;;;-145.33;100.00;60416.63;5006785;28;20034;-84
2023/08/08 00:41:06;;;;;;;5.07;1.95;;;;;;;-145.33;100.00;60416.63;5007396;28;20040;-83
2023/08/08 00:43:31;;;;;;;3.25;1.80;;;;;;;-145.33;100.00;60416.63;5009996;28;20033;-82
2023/08/08 00:45:57;;;;;;;3.70;1.92;;;;;;;-145.33;100.00;60416.63;5005219;28;20096;-82
2023/08/08 00:48:25;;;;;;;3.88;2.10;;;;;;;-145.33;100.00;60416.63;5004437;28;20069;-82
2023/08/08 00:50:55;;;;;;;3.70;2.10;;;;;;;-145.33;100.00;60416.63;4990272;28;20046;-82
2023/08/08 00:53:22;;;;;;;4.07;1.90;;;;;;;-145.33;100.00;60416.63;4990168;28;20033;-82
2023/08/08 00:55:48;;;;;;;4.38;1.90;;;;;;;-145.33;100.00;60416.63;4990044;28;20052;-83
2023/08/08 00:58:17;;;;;;;3.03;1.77;;;;;;;-145.33;100.00;60416.63;5002511;28;20038;-83
2023/08/08 01:00:42;;;;;;;4.35;2.00;;;;;;;-145.33;100.00;60416.63;4987462;28;20559;-84
2023/08/08 01:03:08;;;;;;;4.07;2.20;;;;;;;-145.33;100.00;60416.63;4987255;28;20046;-83
2023/08/08 01:06:08;;;;;;;2.95;1.95;;;;;;;-145.33;100.00;60416.63;5002415;28;20038;-84
2023/08/08 01:08:50;;;;;;;3.70;1.90;;;;;;;-145.33;100.00;60416.63;4979668;28;20116;-84
2023/08/08 01:11:17;;;;;;;7.50;2.33;;;;;;;-145.33;100.00;60416.63;5001977;28;20030;-83
2023/08/08 01:13:43;;;;;;;3.65;1.90;;;;;;;-145.33;100.00;60416.63;4986701;28;20479;-84
2023/08/08 01:16:10;;;;;;;4.00;1.98;;;;;;;-145.33;100.00;60416.63;4987425;28;20033;-84
2023/08/08 01:18:37;;;;;;;4.38;2.13;;;;;;;-145.33;100.00;60416.63;4985867;28;20065;-84
2023/08/08 01:21:04;;;;;;;6.10;2.10;;;;;;;-145.33;100.00;60416.63;4987248;28;20062;-83
2023/08/08 01:23:56;;;;;;;4.90;2.25;;;;;;;-145.33;100.00;60416.63;4988202;28;20037;-84
2023/08/08 01:26:25;;;;;;;4.13;1.98;;;;;;;-145.33;100.00;60416.63;4987014;28;20035;-84
2023/08/08 01:28:56;;;;;;;4.90;2.30;;;;;;;-145.33;100.00;60416.63;5002730;28;20061;-86
2023/08/08 01:31:21;;;;;;;3.22;1.92;;;;;;;-145.33;100.00;60416.63;4987355;28;20037;-83
2023/08/08 01:33:54;;;;;;;3.67;1.80;;;;;;;-145.33;100.00;60416.63;4986894;28;20042;-83
2023/08/08 01:36:38;;;;;;;3.67;1.83;;;;;;;-145.33;100.00;60416.63;4987120;28;20117;-86
2023/08/08 01:39:10;;;;;;;5.13;2.10;;;;;;;-145.33;100.00;60416.63;4989661;28;20080;-84
2023/08/08 01:41:38;;;;;;;5.78;2.22;;;;;;;-145.33;100.00;60416.63;4993674;28;20050;-84
2023/08/08 01:44:05;;;;;;;4.13;1.80;;;;;;;-145.33;100.00;60416.63;5006857;28;20138;-85
2023/08/08 01:46:30;;;;;;;3.47;2.00;;;;;;;-145.33;100.00;60416.63;5007643;28;20507;-84
2023/08/08 01:48:58;;;;;;;2.75;1.70;;;;;;;-145.33;100.00;60416.63;5007869;28;20096;-82
2023/08/08 01:51:25;;;;;;;4.00;1.83;;;;;;;-145.33;100.00;60416.63;5007569;28;20495;-84
2023/08/08 01:53:51;;;;;;;4.60;1.95;;;;;;;-145.33;100.00;60416.63;4991736;28;20487;-87
2023/08/08 01:56:16;;;;;;;3.28;1.75;;;;;;;-145.33;100.00;60416.63;5008538;28;20030;-85
2023/08/08 01:58:42;;;;;;;4.15;1.80;;;;;;;-145.33;100.00;60416.63;4991489;28;20048;-85
2023/08/08 02:01:07;;;;;;;5.60;2.30;;;;;;;-145.33;100.00;60416.63;5008448;28;20030;-86
2023/08/08 02:03:32;;;;;;;5.28;2.10;;;;;;;-145.33;100.00;60416.63;4993614;28;20061;-84
2023/08/08 02:05:58;;;;;;;3.33;1.77;;;;;;;-145.33;100.00;60416.63;5007641;28;20026;-84
2023/08/08 02:08:26;;;;;;;3.35;1.77;;;;;;;-145.33;100.00;60416.63;4991498;28;20034;-86
2023/08/08 02:10:51;;;;;;;4.38;1.98;;;;;;;-145.33;100.00;60416.63;5008347;28;20529;-85
2023/08/08 02:13:17;;;;;;;4.22;1.90;;;;;;;-145.33;100.00;60416.63;4990514;28;20061;-85
2023/08/08 02:15:42;;;;;;;4.85;2.15;;;;;;;-145.33;100.00;60416.63;5007155;28;20034;-84
2023/08/08 02:18:10;;;;;;;3.67;1.90;;;;;;;-145.33;100.00;60416.63;4992129;28;20027;-84
2023/08/08 02:20:36;;;;;;;4.38;1.80;;;;;;;-145.33;100.00;60416.63;4992003;28;20510;-83
2023/08/08 02:23:02;;;;;;;2.13;1.30;;;;;;;-145.33;100.00;60416.63;5008127;28;20034;-84
2023/08/08 02:25:29;;;;;;;2.90;1.30;;;;;;;-145.33;100.00;60416.63;5008000;28;20176;-84
2023/08/08 02:27:55;;;;;;;3.03;1.65;;;;;;;-145.33;100.00;60416.63;5007907;28;20445;-85
2023/08/08 02:30:20;;;;;;;3.15;1.30;;;;;;;-145.33;100.00;60416.63;4992029;28;20113;-88
2023/08/08 02:32:46;;;;;;;3.25;1.30;;;;;;;-145.33;100.00;60416.63;5006952;28;20035;-85
2023/08/08 02:35:12;;;;;;;4.65;1.50;;;;;;;-145.33;100.00;60416.63;4991391;28;20148;-84
2023/08/08 02:37:37;;;;;;;3.90;1.42;;;;;;;-145.33;100.00;60416.63;4992570;28;20045;-86
2023/08/08 02:40:04;;;;;;;3.00;1.50;;;;;;;-145.33;100.00;60416.63;4992361;28;20038;-84
2023/08/08 02:42:30;;;;;;;3.53;1.50;;;;;;;-145.33;100.00;60416.63;5005071;28;20041;-84
2023/08/08 02:44:55;;;;;;;4.72;1.70;;;;;;;-145.33;100.00;60416.63;4992707;28;20042;-84
2023/08/08 02:47:21;;;;;;;2.20;1.33;;;;;;;-145.33;100.00;60416.63;5010045;28;20176;-84
2023/08/08 02:49:46;;;;;;;2.70;1.35;;;;;;;-145.33;100.00;60416.63;5012329;28;20049;-85
2023/08/08 02:52:12;;;;;;;2.47;1.23;;;;;;;-145.33;100.00;60416.63;5013210;28;20030;-83
2023/08/08 02:54:37;;;;;;;2.47;1.10;;;;;;;-145.33;100.00;60416.63;5035005;28;20061;-91
2023/08/08 02:57:03;;;;;;;3.70;1.30;;;;;;;-145.33;100.00;60416.63;5034313;28;20026;-87
2023/08/08 02:59:29;;;;;;;2.40;1.25;;;;;;;-145.33;100.00;60416.63;5034736;28;20097;-87
2023/08/08 03:01:54;;;;;;;1.75;1.08;;;;;;;-145.33;100.00;60416.63;5035027;28;20029;-81
2023/08/08 03:04:20;;;;;;;2.55;1.10;;;;;;;-145.33;100.00;60416.63;5034085;28;20022;-91
2023/08/08 03:06:48;;;;;;;4.32;0.98;;;;;;;-145.33;100.00;60416.63;5034949;28;20033;-89
2023/08/08 03:09:13;;;;;;;;;;;;;;;-145.33;100.00;60416.63;5034533;28;20034;-87
2023/08/08 03:11:41;;;;;;;3.00;1.05;;;;;;;-145.33;100.00;60416.63;5017543;28;19948;-87
2023/08/08 03:14:08;;;;;;;;;;;;;;;-145.33;100.00;60416.63;5034207;28;20033;-90
2023/08/08 03:16:34;;;;;;;;;;;;;;;-145.33;100.00;60416.63;5034947;28;19913;-87
2023/08/08 03:18:59;;;;;;;1.33;0.75;;;;;;;-145.33;100.00;60416.63;5017435;28;20092;-84
2023/08/08 03:21:25;;;;;;;3.03;1.17;;;;;;;-145.33;100.00;60416.63;5034454;28;20022;-87
2023/08/08 03:23:50;;;;;;;2.08;0.90;;;;;;;-145.33;100.00;60416.63;5033499;28;20033;-87
2023/08/08 03:26:16;;;;;;;3.60;1.00;;;;;;;-145.33;100.00;60416.63;5034459;28;20028;-87
2023/08/08 03:28:41;;;;;;;1.58;0.77;;;;;;;-145.33;100.00;60416.63;5034634;28;20034;-89
2023/08/08 03:31:07;;;;;;;2.20;1.10;;;;;;;-145.33;100.00;60416.63;5034539;28;20022;-87
2023/08/08 03:33:32;;;;;;;5.10;1.50;;;;;;;-145.33;100.00;60416.63;5034376;28;20022;-89
2023/08/08 03:35:58;;;;;;;1.88;0.95;;;;;;;-145.33;100.00;60416.63;5033871;28;20034;-88
2023/08/08 03:38:23;;;;;;;1.48;0.70;;;;;;;-145.33;100.00;60416.63;5017478;28;20095;-88
2023/08/08 03:40:49;;;;;;;4.57;0.95;;;;;;;-145.33;100.00;60416.63;5034512;28;20041;-89
2023/08/08 03:43:14;;;;;;;4.38;1.20;;;;;;;-145.33;100.00;60416.63;5033702;28;20032;-90
2023/08/08 03:45:42;;;;;;;1.73;0.80;;;;;;;-145.33;100.00;60416.63;5034660;28;20069;-90
2023/08/08 03:48:07;;;;;;;3.38;1.02;;;;;;;-145.33;100.00;60416.63;5032947;28;20053;-88
2023/08/08 03:50:33;;;;;;;2.65;1.25;;;;;;;-145.33;100.00;60416.63;5032172;28;20122;-82
2023/08/08 03:52:58;;;;;;;2.53;1.10;;;;;;;-145.33;100.00;60416.63;5019317;28;20101;-83
2023/08/08 03:55:24;;;;;;;4.80;1.20;;;;;;;-145.33;100.00;60416.63;5015926;28;20096;-86
2023/08/08 03:57:49;;;;;;;3.88;1.40;;;;;;;-145.33;100.00;60416.63;4998282;28;20036;-83
2023/08/08 04:00:15;;;;;;;2.85;1.20;;;;;;;-145.33;100.00;60416.63;5015226;28;20029;-85
2023/08/08 04:02:41;;;;;;;3.45;1.30;;;;;;;-145.33;100.00;60416.63;5014064;28;20026;-84
2023/08/08 04:05:06;;;;;;;2.67;1.45;;;;;;;-145.33;100.00;60416.63;5012813;28;20482;-89
2023/08/08 04:07:32;;;;;;;13.05;2.25;;;;;;;-145.33;100.00;60416.63;5012345;28;20026;-85
2023/08/08 04:09:57;;;;;;;6.18;1.30;;;;;;;-145.33;100.00;60416.63;5012473;28;20030;-83
2023/08/08 04:12:23;;;;;;;3.25;1.38;;;;;;;-145.33;100.00;60416.63;5012505;28;20037;-86
2023/08/08 04:14:48;;;;;;;5.88;1.13;;;;;;;-145.33;100.00;60416.63;5011972;28;20034;-85
2023/08/08 04:17:14;;;;;;;8.10;1.65;;;;;;;-145.33;100.00;60416.63;5010618;28;20030;-84
2023/08/08 04:19:39;;;;;;;5.25;1.90;;;;;;;-145.33;100.00;60416.63;5011346;28;20100;-84
2023/08/08 04:22:04;;;;;;;2.25;1.35;;;;;;;-145.33;100.00;60416.63;4994718;28;20481;-83
2023/08/08 04:24:30;;;;;;;2.95;1.20;;;;;;;-145.33;100.00;60416.63;5012479;28;20052;-84
2023/08/08 04:26:55;;;;;;;2.42;1.08;;;;;;;-145.33;100.00;60416.63;5009229;28;20068;-83
2023/08/08 04:29:21;;;;;;;1.80;1.10;;;;;;;-145.33;100.00;60416.63;5011510;28;20092;-85
2023/08/08 04:31:46;;;;;;;3.33;1.33;;;;;;;-145.33;100.00;60416.63;5009915;28;20026;-83
2023/08/08 04:34:11;;;;;;;5.45;1.60;;;;;;;-145.33;100.00;60416.63;5011060;28;20132;-85
2023/08/08 04:36:37;;;;;;;6.25;1.80;;;;;;;-145.33;100.00;60416.63;5011367;28;20490;-88
2023/08/08 04:39:02;;;;;;;3.30;1.63;;;;;;;-145.33;100.00;60416.63;5011495;28;20041;-88
2023/08/08 04:41:28;;;;;;;4.18;1.50;;;;;;;-145.33;100.00;60416.63;5009979;28;20033;-85
2023/08/08 04:43:53;;;;;;;3.60;1.73;;;;;;;-145.33;100.00;60416.63;5009827;28;20041;-83
2023/08/08 04:46:18;;;;;;;4.40;1.70;;;;;;;-145.33;100.00;60416.63;5009616;28;20088;-83
2023/08/08 04:48:44;;;;;;;3.47;1.80;;;;;;;-145.33;100.00;60416.63;4993183;28;20553;-84
2023/08/08 04:51:09;;;;;;;1.73;1.05;;;;;;;-145.33;100.00;60416.63;5009160;28;20026;-87
2023/08/08 04:53:35;;;;;;;2.45;1.23;;;;;;;-145.33;100.00;60416.63;5010900;28;20030;-87
2023/08/08 04:56:00;;;;;;;3.83;1.55;;;;;;;-145.33;100.00;60416.63;5007514;28;20124;-82
2023/08/08 04:58:26;;;;;;;2.85;1.17;;;;;;;-145.33;100.00;60416.63;5007153;28;20026;-85
2023/08/08 05:00:51;;;;;;;3.53;1.70;;;;;;;-145.33;100.00;60416.63;5007784;28;20030;-83
2023/08/08 05:03:17;;;;;;;2.50;1.20;;;;;;;-145.33;100.00;60416.63;5006722;28;20409;-82
2023/08/08 05:05:44;;;;;;;2.30;1.20;;;;;;;-145.33;100.00;60416.63;5007609;28;20113;-82
2023/08/08 05:08:11;;;;;;;2.45;1.30;;;;;;;-145.33;100.00;60416.63;5006996;28;20048;-81
2023/08/08 05:10:36;;;;;;;2.63;1.50;;;;;;;-145.33;100.00;60416.63;5005877;28;20187;-89
2023/08/08 05:13:01;;;;;;;4.63;1.40;;;;;;;-145.33;100.00;60416.63;5007218;28;20161;-84
2023/08/08 05:15:27;;;;;;;2.15;1.20;;;;;;;-145.33;100.00;60416.63;5010946;28;20029;-82
2023/08/08 05:17:54;;;;;;;2.10;1.13;;;;;;;-145.33;100.00;60416.63;5009938;28;20671;-86
2023/08/08 05:20:21;;;;;;;2.10;1.35;;;;;;;-145.33;100.00;60416.63;5009690;28;20398;-83
2023/08/08 05:22:47;;;;;;;4.55;1.30;;;;;;;-145.33;100.00;60416.63;5011363;28;20033;-82
2023/08/08 05:25:12;;;;;;;3.10;1.45;;;;;;;-145.33;100.00;60416.63;5011540;28;20034;-82
2023/08/08 05:27:38;;;;;;;1.60;1.15;;;;;;;-145.33;100.00;60416.63;5010205;28;20129;-83
2023/08/08 05:30:04;;;;;;;2.50;1.40;;;;;;;-145.33;100.00;60416.63;5011306;28;20030;-81
2023/08/08 05:32:30;;;;;;;4.93;1.80;;;;;;;-145.33;100.00;60416.63;5009636;28;20029;-84
2023/08/08 05:34:57;;;;;;;3.72;1.75;;;;;;;-145.33;100.00;60416.63;5010716;28;20066;-87
2023/08/08 05:37:24;;;;;;;4.18;1.70;;;;;;;-145.33;100.00;60416.63;5011390;28;20030;-81
2023/08/08 05:39:49;;;;;;;4.80;2.00;;;;;;;-145.33;100.00;60416.63;5010953;28;20034;-81
2023/08/08 05:42:14;;;;;;;2.67;1.70;;;;;;;-145.33;100.00;60416.63;5010668;28;20381;-82
2023/08/08 05:44:41;;;;;;;4.18;1.90;;;;;;;-145.33;100.00;60416.63;5009049;28;20038;-81
2023/08/08 05:47:07;;;;;;;3.33;2.08;;;;;;;-145.33;100.00;60416.63;5001331;28;20450;-89
2023/08/08 05:49:35;;;;;;;3.67;1.98;;;;;;;-145.33;100.00;60416.63;4989914;28;20034;-79
2023/08/08 05:52:01;;;;;;;4.35;1.95;;;;;;;-145.33;100.00;60416.63;4990840;28;20424;-82
2023/08/08 05:54:27;;;;;;;3.92;2.40;;;;;;;-145.33;100.00;60416.63;4973741;28;20419;-82
2023/08/08 05:56:53;;;;;;;4.03;2.40;;;;;;;-145.33;100.00;60416.63;4992782;28;20065;-79
2023/08/08 05:59:21;;;;;;;4.43;2.72;;;;;;;-145.33;100.00;60416.63;5010306;28;20100;-81
2023/08/08 06:01:47;;;;;;;3.53;2.20;;;;;;;-145.33;100.00;60416.63;5010420;28;20033;-85
2023/08/08 06:04:13;;;;;;;5.68;3.40;;;;;;;-145.33;100.00;60416.63;4992685;28;20469;-82
2023/08/08 06:06:39;;;;;;;6.10;3.05;;;;;;;-145.33;100.00;60416.63;5011691;28;20125;-87
2023/08/08 06:09:05;;;;;;;4.90;3.17;;;;;;;-145.33;100.00;60416.63;4994749;28;20109;-84
2023/08/08 06:11:30;;;;;;;4.68;2.90;;;;;;;-145.33;100.00;60416.63;5010357;28;20048;-80
2023/08/08 06:13:55;;;;;;;6.90;3.92;;;;;;;-145.33;100.00;60416.63;4992036;28;20037;-80
2023/08/08 06:16:22;;;;;;;6.38;3.30;;;;;;;-145.33;100.00;60416.63;5010676;28;20029;-80
2023/08/08 06:18:47;;;;;;;7.03;3.65;;;;;;;-145.33;100.00;60416.63;5009869;28;20040;-79
2023/08/08 06:21:13;;;;;;;6.47;4.20;;;;;;;-145.33;100.00;60416.63;5009958;28;20033;-78
2023/08/08 06:23:38;;;;;;;6.85;3.35;;;;;;;-145.33;100.00;60416.63;5010232;28;20030;-81
2023/08/08 06:26:12;;;;;;;10.20;5.70;;;;;;;-145.33;100.00;60416.63;5008570;28;20246;-81
2023/08/08 06:28:37;;;;;;;5.22;3.33;;;;;;;-145.33;100.00;60416.63;5010195;28;20032;-80
2023/08/08 06:31:03;;;;;;;6.50;4.47;;;;;;;-145.33;100.00;60416.63;5010071;28;20034;-80
2023/08/08 06:33:28;;;;;;;6.07;3.33;;;;;;;-145.33;100.00;60416.63;4994751;28;20230;-80
2023/08/08 06:35:55;;;;;;;4.88;2.90;;;;;;;-145.33;100.00;60416.63;5011980;28;20032;-83
2023/08/08 06:38:20;;;;;;;6.28;3.10;;;;;;;-145.33;100.00;60416.63;5010153;28;20498;-81
2023/08/08 06:40:49;;;;;;;8.02;3.10;;;;;;;-145.33;100.00;60416.63;5011214;28;20076;-83
2023/08/08 06:43:14;;;;;;;5.50;3.17;;;;;;;-145.33;100.00;60416.63;5012092;28;20022;-86
2023/08/08 06:45:40;;;;;;;7.22;3.05;;;;;;;-145.33;100.00;60416.63;5010128;28;20046;-87
2023/08/08 06:48:08;;;;;;;4.25;2.80;;;;;;;-145.33;100.00;60416.63;4995873;28;20037;-83
2023/08/08 06:50:33;;;;;;;;;;;;;;;-145.33;100.00;60416.63;5012109;28;20052;-87
2023/08/08 06:52:58;;;;;;;7.55;3.38;;;;;;;-145.33;100.00;60416.63;4994778;28;19928;-84
2023/08/08 06:55:24;;;;;;;5.28;2.90;;;;;;;-145.33;100.00;60416.63;5011941;28;20121;-85
2023/08/08 06:57:52;;;;;;;5.40;3.28;;;;;;;-145.33;100.00;60416.63;4996005;28;20041;-86
2023/08/08 07:00:17;;;;;;;6.03;3.60;;;;;;;-145.33;100.00;60416.63;4995318;28;20032;-83
2023/08/08 07:02:43;;;;;;;6.78;3.70;;;;;;;-145.33;100.00;60416.63;5012309;28;20282;-85
2023/08/08 07:05:09;;;;;;;5.53;3.55;;;;;;;-145.33;100.00;60416.63;4995886;28;20505;-84
2023/08/08 07:07:35;;;;;;;8.18;3.40;;;;;;;-145.33;100.00;60416.63;5011799;28;20034;-84
2023/08/08 07:10:04;;;;;;;6.78;3.95;;;;;;;-145.33;100.00;60416.63;5010708;28;20041;-85
2023/08/08 07:12:29;;;;;;;5.28;3.63;;;;;;;-145.33;100.00;60416.63;5011557;28;20084;-88
2023/08/08 07:14:55;;;;;;;4.80;3.20;;;;;;;-145.33;100.00;60416.63;5012057;28;20057;-85
2023/08/08 07:17:20;;;;;;;7.43;3.92;;;;;;;-145.33;100.00;60416.63;5011819;28;20084;-84
2023/08/08 07:19:46;;;;;;;7.13;3.97;;;;;;;-145.33;100.00;60416.63;5011318;28;20040;-85
2023/08/08 07:22:11;;;;;;;6.68;4.20;;;;;;;-145.33;100.00;60416.63;5011641;28;20026;-83
2023/08/08 07:24:38;;;;;;;5.80;4.40;;;;;;;-145.33;100.00;60416.63;5010798;28;20038;-83
2023/08/08 07:27:04;;;;;;;6.50;4.18;;;;;;;-145.33;100.00;60416.63;5010234;28;20061;-83
2023/08/08 07:29:32;;;;;;;6.57;4.05;;;;;;;-145.33;100.00;60416.63;4995216;28;20474;-81
2023/08/08 07:31:58;;;;;;;8.00;4.03;;;;;;;-145.33;100.00;60416.63;4994700;28;20045;-81
2023/08/08 07:34:25;;;;;;;7.50;4.32;;;;;;;-145.33;100.00;60416.63;5012181;28;20502;-83
2023/08/08 07:36:54;;;;;;;6.07;4.40;;;;;;;-145.33;100.00;60416.63;5012692;28;20113;-83
2023/08/08 07:39:19;;;;;;;7.38;4.97;;;;;;;-145.33;100.00;60416.63;5012763;28;20092;-84
2023/08/08 07:41:45;;;;;;;8.23;4.82;;;;;;;-145.33;100.00;60416.63;4994505;28;20026;-83
2023/08/08 07:44:13;;;;;;;6.80;4.70;;;;;;;-145.33;100.00;60416.63;5012422;28;20101;-84
2023/08/08 07:46:38;;;;;;;13.50;5.43;;;;;;;-145.33;100.00;60416.63;5012257;28;20126;-84
2023/08/08 07:49:04;;;;;;;7.35;4.45;;;;;;;-145.33;100.00;60416.63;4993791;28;20422;-84
2023/08/08 07:51:30;;;;;;;6.35;4.53;;;;;;;-145.33;100.00;60416.63;5012164;28;20025;-84
2023/08/08 07:53:56;;;;;;;6.30;5.13;;;;;;;-145.33;100.00;60416.63;4994453;28;20041;-85
2023/08/08 07:56:22;;;;;;;5.82;4.50;;;;;;;-145.33;100.00;60416.63;5012413;28;20030;-84
2023/08/08 07:58:47;;;;;;;5.72;4.15;;;;;;;-145.33;100.00;60416.63;5011146;28;20037;-84
2023/08/08 08:01:13;;;;;;;6.10;4.50;;;;;;;-145.33;100.00;60416.63;5010824;28;20467;-85
2023/08/08 08:03:39;;;;;;;5.07;4.15;;;;;;;-145.33;100.00;60416.63;5013118;28;20026;-85
2023/08/08 08:06:05;;;;;;;7.78;4.65;;;;;;;-145.33;100.00;60416.63;5010344;28;20032;-84
2023/08/08 08:08:30;;;;;;;7.10;4.38;;;;;;;-145.33;100.00;60416.63;5011662;28;20053;-85
2023/08/08 08:10:56;;;;;;;6.80;4.53;;;;;;;-145.33;100.00;60416.63;5009892;28;20112;-84
2023/08/08 08:13:21;;;;;;;6.13;4.43;;;;;;;-145.33;100.00;60416.63;5011602;28;20453;-84
2023/08/08 08:15:47;;;;;;;5.07;4.30;;;;;;;-145.33;100.00;60416.63;4993815;28;20056;-84
2023/08/08 08:18:13;;;;;;;4.82;3.53;;;;;;;-145.33;100.00;60416.63;5007894;28;20036;-86
2023/08/08 08:20:39;;;;;;;4.80;3.33;;;;;;;-145.33;100.00;60416.63;5008813;28;20129;-85
2023/08/08 08:23:05;;;;;;;4.90;3.40;;;;;;;-145.33;100.00;60416.63;5011548;28;20120;-86
2023/08/08 08:25:31;;;;;;;5.82;4.03;;;;;;;-145.33;100.00;60416.63;5011083;28;20481;-84
2023/08/08 08:27:57;;;;;;;5.40;4.00;;;;;;;-145.33;100.00;60416.63;5009858;28;20111;-84
2023/08/08 08:30:25;;;;;;;4.43;3.70;;;;;;;-145.33;100.00;60416.63;5007332;28;20499;-86
2023/08/08 08:32:51;;;;;;;5.82;3.45;;;;;;;-145.33;100.00;60416.63;4992267;28;20033;-84
2023/08/08 08:35:17;;;;;;;4.25;3.35;;;;;;;-145.33;100.00;60416.63;5008878;28;20415;-86
2023/08/08 08:37:42;;;;;;;4.80;3.50;;;;;;;-145.33;100.00;60416.63;4993017;28;20030;-87
2023/08/08 08:40:08;;;;;;;4.57;3.20;;;;;;;-145.33;100.00;60416.63;5008760;28;20465;-85
2023/08/08 08:42:35;;;;;;;6.70;3.65;;;;;;;-145.33;100.00;60416.63;5007895;28;20501;-83
2023/08/08 08:45:02;;;;;;;4.15;3.30;;;;;;;-145.33;100.00;60416.63;5009753;28;20026;-85
2023/08/08 08:47:30;;;;;;;6.88;3.60;;;;;;;-145.33;100.00;60416.63;5009896;28;20034;-85
2023/08/08 08:49:57;;;;;;;5.22;3.10;;;;;;;-145.33;100.00;60416.63;5008607;28;20026;-85
2023/08/08 08:52:23;;;;;;;4.38;3.10;;;;;;;-145.33;100.00;60416.63;5008578;28;20034;-85
2023/08/08 08:54:50;;;;;;;5.45;3.25;;;;;;;-145.33;100.00;60416.63;5008243;28;20029;-86
2023/08/08 08:57:19;;;;;;;4.75;3.50;;;;;;;-145.33;100.00;60416.63;5008414;28;20445;-85
2023/08/08 08:59:44;;;;;;;5.03;3.13;;;;;;;-145.33;100.00;60416.63;5008825;28;20555;-84
2023/08/08 09:02:10;;;;;;;4.93;3.70;;;;;;;-145.33;100.00;60416.63;5008636;28;20098;-85
2023/08/08 09:04:37;;;;;;;5.10;3.40;;;;;;;-145.33;100.00;60416.63;5006140;28;20160;-85
2023/08/08 09:07:05;;;;;;;5.85;4.35;;;;;;;-145.33;100.00;60416.63;4992396;28;20087;-85
2023/08/08 09:09:32;;;;;;;4.45;3.63;;;;;;;-145.33;100.00;60416.63;5009895;28;20125;-85
2023/08/08 09:11:57;;;;;;;4.18;3.50;;;;;;;-145.33;100.00;60416.63;4990385;28;20216;-85
2023/08/08 09:14:26;;;;;;;4.93;3.60;;;;;;;-145.33;100.00;60416.63;4992170;28;20141;-83
2023/08/08 09:16:53;;;;;;;5.93;3.80;;;;;;;-145.33;100.00;60416.63;5007424;28;20049;-84
2023/08/08 09:19:20;;;;;;;4.80;3.70;;;;;;;-145.33;100.00;60416.63;4992220;28;20036;-84
2023/08/08 09:21:50;;;;;;;5.95;4.00;;;;;;;-145.33;100.00;60416.63;4991844;28;20026;-87
2023/08/08 09:24:16;;;;;;;5.20;4.07;;;;;;;-145.33;100.00;60416.63;4992395;28;20301;-86
2023/08/08 09:26:42;;;;;;;5.57;4.00;;;;;;;-145.33;100.00;60416.63;5010263;28;20719;-84
2023/08/08 09:29:09;;;;;;;4.32;3.42;;;;;;;-145.33;100.00;60416.63;4992109;28;20116;-83
2023/08/08 09:31:35;;;;;;;5.20;3.47;;;;;;;-145.33;100.00;60416.63;5008341;28;20049;-84
2023/08/08 09:34:03;;;;;;;4.93;3.35;;;;;;;-145.33;100.00;60416.63;5007315;28;20391;-84
2023/08/08 09:36:28;;;;;;;4.88;3.28;;;;;;;-145.33;100.00;60416.63;5009502;28;20076;-86
2023/08/08 09:38:54;;;;;;;4.72;3.53;;;;;;;-145.33;100.00;60416.63;5008702;28;20505;-85
2023/08/08 09:41:21;;;;;;;4.85;3.70;;;;;;;-145.33;100.00;60416.63;5008865;28;20033;-84
2023/08/08 09:43:48;;;;;;;3.87;3.30;;;;;;;-145.33;100.00;60416.63;4993377;28;20124;-82
2023/08/08 09:46:15;;;;;;;4.07;3.20;;;;;;;-145.33;100.00;60416.63;5009512;28;20052;-84
2023/08/08 09:48:41;;;;;;;4.35;3.20;;;;;;;-145.33;100.00;60416.63;4993307;28;20026;-84
2023/08/08 09:51:07;;;;;;;4.22;3.50;;;;;;;-145.33;100.00;60416.63;5011277;28;20069;-84
2023/08/08 09:53:34;;;;;;;4.47;3.40;;;;;;;-145.33;100.00;60416.63;4992945;28;20076;-82
2023/08/08 09:56:03;;;;;;;4.63;3.25;;;;;;;-145.33;100.00;60416.63;5010555;28;20084;-84
2023/08/08 09:58:29;;;;;;;3.38;2.65;;;;;;;-145.33;100.00;60416.63;5011360;28;20060;-86
2023/08/08 10:00:54;;;;;;;3.05;2.40;;;;;;;-145.33;100.00;60416.63;5013901;28;20044;-82
2023/08/08 10:03:20;;;;;;;3.50;2.60;;;;;;;-145.33;100.00;60416.63;4996306;28;20033;-82
2023/08/08 10:05:46;;;;;;;3.58;2.33;;;;;;;-145.33;100.00;60416.63;5012300;28;20030;-84
2023/08/08 10:08:15;;;;;;;2.85;2.13;;;;;;;-145.33;100.00;60416.63;5009085;28;20117;-84
2023/08/08 10:10:41;;;;;;;2.90;2.30;;;;;;;-145.33;100.00;60416.63;5008841;28;20038;-82
2023/08/08 10:13:07;;;;;;;2.60;2.22;;;;;;;-145.33;100.00;60416.63;5009614;28;20573;-85
2023/08/08 10:15:37;;;;;;;4.38;2.25;;;;;;;-145.33;100.00;60416.63;5009768;28;20121;-84
2023/08/08 10:18:03;;;;;;;3.70;2.40;;;;;;;-145.33;100.00;60416.63;5009872;28;20037;-84
2023/08/08 10:20:33;;;;;;;3.70;2.30;;;;;;;-145.33;100.00;60416.63;5009767;28;20030;-83
2023/08/08 10:23:00;;;;;;;2.83;2.38;;;;;;;-145.33;100.00;60416.63;5009727;28;20049;-83
2023/08/08 10:25:27;;;;;;;3.08;2.15;;;;;;;-145.33;100.00;60416.63;5009766;28;20095;-83
2023/08/08 10:28:10;;;;;;;2.53;2.20;;;;;;;-145.33;100.00;60416.63;5008158;28;20030;-84
2023/08/08 10:30:43;;;;;;;3.00;2.40;;;;;;;-145.33;100.00;60416.63;4992200;28;20268;-83
2023/08/08 10:33:16;;;;;;;2.58;2.13;;;;;;;-145.33;100.00;60416.63;5009491;28;20434;-82
2023/08/08 10:36:09;;;;;;;2.75;2.10;;;;;;;-145.33;100.00;60416.63;5009303;28;20469;-82
2023/08/08 10:38:43;;;;;;;3.55;2.15;;;;;;;-145.33;100.00;60416.63;5009364;28;20510;-84
2023/08/08 10:41:15;;;;;;;3.30;2.20;;;;;;;-145.33;100.00;60416.63;5009435;28;20100;-84
2023/08/08 10:43:51;;;;;;;2.58;1.85;;;;;;;-145.33;100.00;60416.63;4991984;28;20033;-84
2023/08/08 10:46:24;;;;;;;2.05;1.70;;;;;;;-145.33;100.00;60416.63;5004546;28;20144;-84
2023/08/08 10:48:56;;;;;;;4.00;1.95;;;;;;;-145.33;100.00;60416.63;4989673;28;20395;-84
2023/08/08 10:51:21;;;;;;;3.08;1.75;;;;;;;-145.33;100.00;60416.63;5005244;28;20034;-82
2023/08/08 10:53:51;;;;;;;3.08;1.90;;;;;;;-145.33;100.00;60416.63;4989977;28;20030;-83
2023/08/08 10:56:20;;;;;;;2.88;2.00;;;;;;;-145.33;100.00;60416.63;4987774;28;20026;-84
2023/08/08 10:58:49;;;;;;;2.75;1.83;;;;;;;-145.33;100.00;60416.63;4988472;28;20049;-82
2023/08/08 11:01:17;;;;;;;2.95;1.98;;;;;;;-145.33;100.00;60416.63;4989539;28;20030;-82
2023/08/08 11:03:43;;;;;;;3.17;1.92;;;;;;;-145.33;100.00;60416.63;4990054;28;20019;-83
2023/08/08 11:06:10;;;;;;;4.53;2.30;;;;;;;-145.33;100.00;60416.63;4989255;28;20035;-82
2023/08/08 11:08:38;;;;;;;3.03;2.33;;;;;;;-145.33;100.00;60416.63;4987771;28;20030;-82